sensor_id;sensor_type;location;lat;lon;timestamp;P1;durP1;ratioP1;P2;durP2;ratioP2
32505;SDS011;18955;51.224;8.482;2023-12-29T00:00:53;5.07;;;1.27;;
32505;SDS011;18955;51.224;8.482;2023-12-29T00:03:20;3.78;;;1.17;;
32505;SDS011;18955;51.224;8.482;2023-12-29T00:05:46;3.13;;;1.08;;
32505;SDS011;18955;51.224;8.482;2023-12-29T00:08:12;3.33;;;1.20;;
32505;SDS011;18955;51.224;8.482;2023-12-29T00:10:38;2.25;;;1.02;;
32505;SDS011;18955;51.224;8.482;2023-12-29T00:13:05;1.33;;;0.68;;
32505;SDS011;18955;51.224;8.482;2023-12-29T00:15:31;6.32;;;1.30;;
32505;SDS011;18955;51.224;8.482;2023-12-29T00:17:57;2.13;;;1.05;;
32505;SDS011;18955;51.224;8.482;2023-12-29T00:20:23;2.53;;;0.90;;
32505;SDS011;18955;51.224;8.482;2023-12-29T00:22:50;3.03;;;0.95;;
32505;SDS011;18955;51.224;8.482;2023-12-29T00:25:16;1.15;;;0.73;;
32505;SDS011;18955;51.224;8.482;2023-12-29T00:27:42;4.80;;;1.23;;
32505;SDS011;18955;51.224;8.482;2023-12-29T00:30:10;2.65;;;1.25;;
32505;SDS011;18955;51.224;8.482;2023-12-29T00:32:36;5.03;;;1.38;;
32505;SDS011;18955;51.224;8.482;2023-12-29T00:35:03;4.53;;;1.10;;
32505;SDS011;18955;51.224;8.482;2023-12-29T00:37:29;3.35;;;1.08;;
32505;SDS011;18955;51.224;8.482;2023-12-29T00:39:55;2.75;;;0.65;;
32505;SDS011;18955;51.224;8.482;2023-12-29T00:42:22;4.38;;;1.08;;
32505;SDS011;18955;51.224;8.482;2023-12-29T00:44:48;6.47;;;1.00;;
32505;SDS011;18955;51.224;8.482;2023-12-29T00:47:14;4.45;;;1.10;;
32505;SDS011;18955;51.224;8.482;2023-12-29T00:52:07;4.07;;;1.08;;
32505;SDS011;18955;51.224;8.482;2023-12-29T00:54:33;3.95;;;0.98;;
32505;SDS011;18955;51.224;8.482;2023-12-29T00:57:00;1.58;;;0.88;;
32505;SDS011;18955;51.224;8.482;2023-12-29T00:59:26;5.78;;;0.88;;
32505;SDS011;18955;51.224;8.482;2023-12-29T01:01:52;5.55;;;0.95;;
32505;SDS011;18955;51.224;8.482;2023-12-29T01:04:19;5.30;;;1.20;;
32505;SDS011;18955;51.224;8.482;2023-12-29T01:06:45;3.72;;;0.90;;
32505;SDS011;18955;51.224;8.482;2023-12-29T01:09:11;7.93;;;2.67;;
32505;SDS011;18955;51.224;8.482;2023-12-29T01:11:39;4.80;;;1.00;;
32505;SDS011;18955;51.224;8.482;2023-12-29T01:14:07;4.43;;;1.23;;
32505;SDS011;18955;51.224;8.482;2023-12-29T01:16:33;1.58;;;0.63;;
32505;SDS011;18955;51.224;8.482;2023-12-29T01:18:59;5.25;;;1.70;;
32505;SDS011;18955;51.224;8.482;2023-12-29T01:21:26;1.95;;;1.10;;
32505;SDS011;18955;51.224;8.482;2023-12-29T01:23:52;4.60;;;1.02;;
32505;SDS011;18955;51.224;8.482;2023-12-29T01:26:18;3.92;;;1.08;;
32505;SDS011;18955;51.224;8.482;2023-12-29T01:28:44;2.75;;;0.98;;
32505;SDS011;18955;51.224;8.482;2023-12-29T01:31:10;2.38;;;1.10;;
32505;SDS011;18955;51.224;8.482;2023-12-29T01:33:39;4.65;;;1.00;;
32505;SDS011;18955;51.224;8.482;2023-12-29T01:36:05;5.75;;;1.10;;
32505;SDS011;18955;51.224;8.482;2023-12-29T01:38:31;2.90;;;1.15;;
32505;SDS011;18955;51.224;8.482;2023-12-29T01:40:57;2.60;;;0.90;;
32505;SDS011;18955;51.224;8.482;2023-12-29T01:43:24;3.17;;;0.88;;
32505;SDS011;18955;51.224;8.482;2023-12-29T01:45:50;3.63;;;1.52;;
32505;SDS011;18955;51.224;8.482;2023-12-29T01:48:16;4.22;;;1.10;;
32505;SDS011;18955;51.224;8.482;2023-12-29T01:50:43;1.88;;;0.82;;
32505;SDS011;18955;51.224;8.482;2023-12-29T01:53:10;5.18;;;1.20;;
32505;SDS011;18955;51.224;8.482;2023-12-29T01:55:37;2.55;;;1.30;;
32505;SDS011;18955;51.224;8.482;2023-12-29T01:58:03;4.20;;;1.10;;
32505;SDS011;18955;51.224;8.482;2023-12-29T02:00:29;8.35;;;1.38;;
32505;SDS011;18955;51.224;8.482;2023-12-29T02:02:57;4.00;;;1.10;;
32505;SDS011;18955;51.224;8.482;2023-12-29T02:05:24;5.15;;;1.20;;
32505;SDS011;18955;51.224;8.482;2023-12-29T02:07:52;4.43;;;1.20;;
32505;SDS011;18955;51.224;8.482;2023-12-29T02:10:19;5.05;;;1.10;;
32505;SDS011;18955;51.224;8.482;2023-12-29T02:12:46;3.53;;;1.02;;
32505;SDS011;18955;51.224;8.482;2023-12-29T02:15:14;3.92;;;1.20;;
32505;SDS011;18955;51.224;8.482;2023-12-29T02:17:45;6.70;;;1.15;;
32505;SDS011;18955;51.224;8.482;2023-12-29T02:20:16;3.35;;;0.63;;
32505;SDS011;18955;51.224;8.482;2023-12-29T02:25:12;5.70;;;1.30;;
32505;SDS011;18955;51.224;8.482;2023-12-29T02:32:44;7.45;;;1.67;;
32505;SDS011;18955;51.224;8.482;2023-12-29T02:35:14;5.65;;;1.30;;
32505;SDS011;18955;51.224;8.482;2023-12-29T02:37:43;4.78;;;1.48;;
32505;SDS011;18955;51.224;8.482;2023-12-29T02:40:10;6.15;;;1.20;;
32505;SDS011;18955;51.224;8.482;2023-12-29T02:45:03;8.05;;;1.92;;
32505;SDS011;18955;51.224;8.482;2023-12-29T02:47:30;7.80;;;1.52;;
32505;SDS011;18955;51.224;8.482;2023-12-29T02:49:56;6.10;;;1.70;;
32505;SDS011;18955;51.224;8.482;2023-12-29T02:52:24;6.15;;;1.38;;
32505;SDS011;18955;51.224;8.482;2023-12-29T02:54:50;7.20;;;1.38;;
32505;SDS011;18955;51.224;8.482;2023-12-29T02:59:43;6.60;;;1.60;;
32505;SDS011;18955;51.224;8.482;2023-12-29T03:02:09;3.35;;;1.45;;
32505;SDS011;18955;51.224;8.482;2023-12-29T03:04:35;4.03;;;1.50;;
32505;SDS011;18955;51.224;8.482;2023-12-29T03:07:01;3.70;;;1.20;;
32505;SDS011;18955;51.224;8.482;2023-12-29T03:09:28;8.85;;;1.73;;
32505;SDS011;18955;51.224;8.482;2023-12-29T03:11:54;2.53;;;1.15;;
32505;SDS011;18955;51.224;8.482;2023-12-29T03:14:20;7.00;;;1.50;;
32505;SDS011;18955;51.224;8.482;2023-12-29T03:16:46;12.65;;;1.67;;
32505;SDS011;18955;51.224;8.482;2023-12-29T03:19:12;6.93;;;1.35;;
32505;SDS011;18955;51.224;8.482;2023-12-29T03:21:39;5.32;;;1.63;;
32505;SDS011;18955;51.224;8.482;2023-12-29T03:24:05;4.13;;;1.25;;
32505;SDS011;18955;51.224;8.482;2023-12-29T03:26:31;6.95;;;1.88;;
32505;SDS011;18955;51.224;8.482;2023-12-29T03:28:58;6.43;;;1.60;;
32505;SDS011;18955;51.224;8.482;2023-12-29T03:31:25;3.97;;;1.40;;
32505;SDS011;18955;51.224;8.482;2023-12-29T03:33:51;8.60;;;1.50;;
32505;SDS011;18955;51.224;8.482;2023-12-29T03:36:18;7.40;;;1.80;;
32505;SDS011;18955;51.224;8.482;2023-12-29T03:38:44;3.80;;;1.15;;
32505;SDS011;18955;51.224;8.482;2023-12-29T03:41:11;1.15;;;0.70;;
32505;SDS011;18955;51.224;8.482;2023-12-29T03:43:37;6.38;;;1.38;;
32505;SDS011;18955;51.224;8.482;2023-12-29T03:46:03;4.30;;;1.35;;
32505;SDS011;18955;51.224;8.482;2023-12-29T03:48:42;4.50;;;1.55;;
32505;SDS011;18955;51.224;8.482;2023-12-29T03:51:08;3.35;;;1.40;;
32505;SDS011;18955;51.224;8.482;2023-12-29T03:53:34;5.80;;;1.85;;
32505;SDS011;18955;51.224;8.482;2023-12-29T03:56:04;5.90;;;1.50;;
32505;SDS011;18955;51.224;8.482;2023-12-29T03:58:32;6.75;;;1.55;;
32505;SDS011;18955;51.224;8.482;2023-12-29T04:00:58;5.25;;;1.52;;
32505;SDS011;18955;51.224;8.482;2023-12-29T04:03:24;4.53;;;1.35;;
32505;SDS011;18955;51.224;8.482;2023-12-29T04:05:51;3.75;;;1.38;;
32505;SDS011;18955;51.224;8.482;2023-12-29T04:08:17;8.23;;;1.30;;
32505;SDS011;18955;51.224;8.482;2023-12-29T04:10:44;3.40;;;1.23;;
32505;SDS011;18955;51.224;8.482;2023-12-29T04:13:10;5.20;;;1.42;;
32505;SDS011;18955;51.224;8.482;2023-12-29T04:15:36;6.40;;;1.23;;
32505;SDS011;18955;51.224;8.482;2023-12-29T04:18:03;2.70;;;1.05;;
32505;SDS011;18955;51.224;8.482;2023-12-29T04:20:29;4.50;;;1.55;;
32505;SDS011;18955;51.224;8.482;2023-12-29T04:22:55;5.10;;;1.27;;
32505;SDS011;18955;51.224;8.482;2023-12-29T04:25:22;7.00;;;1.15;;
32505;SDS011;18955;51.224;8.482;2023-12-29T04:27:48;6.25;;;1.30;;
32505;SDS011;18955;51.224;8.482;2023-12-29T04:30:23;4.63;;;1.15;;
32505;SDS011;18955;51.224;8.482;2023-12-29T04:32:50;4.53;;;1.48;;
32505;SDS011;18955;51.224;8.482;2023-12-29T04:35:18;6.32;;;1.30;;
32505;SDS011;18955;51.224;8.482;2023-12-29T04:37:44;5.88;;;1.23;;
32505;SDS011;18955;51.224;8.482;2023-12-29T04:40:12;10.82;;;2.00;;
32505;SDS011;18955;51.224;8.482;2023-12-29T04:42:39;5.22;;;1.17;;
32505;SDS011;18955;51.224;8.482;2023-12-29T04:45:05;7.40;;;1.48;;
32505;SDS011;18955;51.224;8.482;2023-12-29T04:47:32;5.95;;;1.30;;
32505;SDS011;18955;51.224;8.482;2023-12-29T04:49:58;6.30;;;1.55;;
32505;SDS011;18955;51.224;8.482;2023-12-29T04:52:25;6.13;;;1.70;;
32505;SDS011;18955;51.224;8.482;2023-12-29T04:54:51;5.10;;;1.42;;
32505;SDS011;18955;51.224;8.482;2023-12-29T04:59:44;5.28;;;1.70;;
32505;SDS011;18955;51.224;8.482;2023-12-29T05:02:10;6.13;;;1.30;;
32505;SDS011;18955;51.224;8.482;2023-12-29T05:04:36;5.82;;;1.50;;
32505;SDS011;18955;51.224;8.482;2023-12-29T05:07:08;5.85;;;1.98;;
32505;SDS011;18955;51.224;8.482;2023-12-29T05:09:35;3.33;;;1.25;;
32505;SDS011;18955;51.224;8.482;2023-12-29T05:12:01;7.43;;;1.63;;
32505;SDS011;18955;51.224;8.482;2023-12-29T05:14:28;6.75;;;1.75;;
32505;SDS011;18955;51.224;8.482;2023-12-29T05:16:54;7.20;;;1.60;;
32505;SDS011;18955;51.224;8.482;2023-12-29T05:19:20;5.13;;;1.13;;
32505;SDS011;18955;51.224;8.482;2023-12-29T05:21:47;4.88;;;1.65;;
32505;SDS011;18955;51.224;8.482;2023-12-29T05:24:16;3.95;;;1.40;;
32505;SDS011;18955;51.224;8.482;2023-12-29T05:26:42;4.97;;;1.40;;
32505;SDS011;18955;51.224;8.482;2023-12-29T05:29:09;3.95;;;1.05;;
32505;SDS011;18955;51.224;8.482;2023-12-29T05:31:35;5.05;;;1.38;;
32505;SDS011;18955;51.224;8.482;2023-12-29T05:34:01;2.05;;;0.90;;
32505;SDS011;18955;51.224;8.482;2023-12-29T05:36:27;3.00;;;0.93;;
32505;SDS011;18955;51.224;8.482;2023-12-29T05:38:55;8.73;;;2.08;;
32505;SDS011;18955;51.224;8.482;2023-12-29T05:41:21;4.45;;;1.10;;
32505;SDS011;18955;51.224;8.482;2023-12-29T05:43:48;2.05;;;1.33;;
32505;SDS011;18955;51.224;8.482;2023-12-29T05:46:14;1.42;;;0.70;;
32505;SDS011;18955;51.224;8.482;2023-12-29T05:48:40;3.60;;;1.00;;
32505;SDS011;18955;51.224;8.482;2023-12-29T05:51:10;2.67;;;0.70;;
32505;SDS011;18955;51.224;8.482;2023-12-29T05:53:39;3.47;;;0.82;;
32505;SDS011;18955;51.224;8.482;2023-12-29T05:56:05;4.25;;;1.10;;
32505;SDS011;18955;51.224;8.482;2023-12-29T05:58:32;3.17;;;1.20;;
32505;SDS011;18955;51.224;8.482;2023-12-29T06:00:58;2.50;;;1.23;;
32505;SDS011;18955;51.224;8.482;2023-12-29T06:03:26;3.90;;;1.25;;
32505;SDS011;18955;51.224;8.482;2023-12-29T06:05:53;3.25;;;1.10;;
32505;SDS011;18955;51.224;8.482;2023-12-29T06:08:19;3.90;;;1.35;;
32505;SDS011;18955;51.224;8.482;2023-12-29T06:10:45;3.60;;;1.20;;
32505;SDS011;18955;51.224;8.482;2023-12-29T06:13:12;4.60;;;0.82;;
32505;SDS011;18955;51.224;8.482;2023-12-29T06:15:38;4.80;;;1.30;;
32505;SDS011;18955;51.224;8.482;2023-12-29T06:18:04;4.55;;;0.60;;
32505;SDS011;18955;51.224;8.482;2023-12-29T06:20:30;3.80;;;1.02;;
32505;SDS011;18955;51.224;8.482;2023-12-29T06:22:57;2.40;;;0.85;;
32505;SDS011;18955;51.224;8.482;2023-12-29T06:25:23;3.60;;;0.98;;
32505;SDS011;18955;51.224;8.482;2023-12-29T06:27:49;3.70;;;1.05;;
32505;SDS011;18955;51.224;8.482;2023-12-29T06:30:16;2.05;;;0.65;;
32505;SDS011;18955;51.224;8.482;2023-12-29T06:32:43;4.68;;;1.08;;
32505;SDS011;18955;51.224;8.482;2023-12-29T06:35:09;3.90;;;1.13;;
32505;SDS011;18955;51.224;8.482;2023-12-29T06:37:36;4.05;;;1.02;;
32505;SDS011;18955;51.224;8.482;2023-12-29T06:40:04;4.25;;;0.98;;
32505;SDS011;18955;51.224;8.482;2023-12-29T06:42:34;4.03;;;0.90;;
32505;SDS011;18955;51.224;8.482;2023-12-29T06:45:00;5.53;;;1.02;;
32505;SDS011;18955;51.224;8.482;2023-12-29T06:47:27;7.72;;;1.27;;
32505;SDS011;18955;51.224;8.482;2023-12-29T06:49:53;3.17;;;1.00;;
32505;SDS011;18955;51.224;8.482;2023-12-29T06:52:19;0.98;;;0.68;;
32505;SDS011;18955;51.224;8.482;2023-12-29T06:54:46;5.03;;;1.20;;
32505;SDS011;18955;51.224;8.482;2023-12-29T06:57:12;3.28;;;1.10;;
32505;SDS011;18955;51.224;8.482;2023-12-29T06:59:40;8.02;;;1.33;;
32505;SDS011;18955;51.224;8.482;2023-12-29T07:02:06;8.27;;;1.25;;
32505;SDS011;18955;51.224;8.482;2023-12-29T07:04:33;7.65;;;1.25;;
32505;SDS011;18955;51.224;8.482;2023-12-29T07:07:00;2.95;;;1.00;;
32505;SDS011;18955;51.224;8.482;2023-12-29T07:09:27;7.63;;;1.40;;
32505;SDS011;18955;51.224;8.482;2023-12-29T07:11:54;5.88;;;1.23;;
32505;SDS011;18955;51.224;8.482;2023-12-29T07:14:21;2.67;;;1.08;;
32505;SDS011;18955;51.224;8.482;2023-12-29T07:16:47;2.13;;;0.82;;
32505;SDS011;18955;51.224;8.482;2023-12-29T07:19:13;7.30;;;1.20;;
32505;SDS011;18955;51.224;8.482;2023-12-29T07:21:39;5.78;;;1.30;;
32505;SDS011;18955;51.224;8.482;2023-12-29T07:24:06;3.58;;;0.73;;
32505;SDS011;18955;51.224;8.482;2023-12-29T07:26:32;5.10;;;1.30;;
32505;SDS011;18955;51.224;8.482;2023-12-29T07:28:59;4.45;;;1.00;;
32505;SDS011;18955;51.224;8.482;2023-12-29T07:31:26;5.65;;;1.08;;
32505;SDS011;18955;51.224;8.482;2023-12-29T07:33:52;3.28;;;0.98;;
32505;SDS011;18955;51.224;8.482;2023-12-29T07:36:18;4.32;;;1.02;;
32505;SDS011;18955;51.224;8.482;2023-12-29T07:38:44;8.63;;;1.13;;
32505;SDS011;18955;51.224;8.482;2023-12-29T07:41:11;4.07;;;1.30;;
32505;SDS011;18955;51.224;8.482;2023-12-29T07:43:37;5.95;;;0.90;;
32505;SDS011;18955;51.224;8.482;2023-12-29T07:46:03;6.20;;;0.88;;
32505;SDS011;18955;51.224;8.482;2023-12-29T07:48:29;9.30;;;1.23;;
32505;SDS011;18955;51.224;8.482;2023-12-29T07:50:56;6.20;;;1.33;;
32505;SDS011;18955;51.224;8.482;2023-12-29T07:53:29;5.07;;;1.08;;
32505;SDS011;18955;51.224;8.482;2023-12-29T07:55:55;2.63;;;0.98;;
32505;SDS011;18955;51.224;8.482;2023-12-29T07:58:22;5.07;;;1.10;;
32505;SDS011;18955;51.224;8.482;2023-12-29T08:00:48;4.85;;;1.10;;
32505;SDS011;18955;51.224;8.482;2023-12-29T08:03:14;4.47;;;1.02;;
32505;SDS011;18955;51.224;8.482;2023-12-29T08:05:40;2.08;;;0.95;;
32505;SDS011;18955;51.224;8.482;2023-12-29T08:08:07;6.00;;;1.30;;
32505;SDS011;18955;51.224;8.482;2023-12-29T08:10:33;5.43;;;1.08;;
32505;SDS011;18955;51.224;8.482;2023-12-29T08:12:59;3.20;;;1.38;;
32505;SDS011;18955;51.224;8.482;2023-12-29T08:15:25;3.15;;;1.00;;
32505;SDS011;18955;51.224;8.482;2023-12-29T08:17:52;3.90;;;1.00;;
32505;SDS011;18955;51.224;8.482;2023-12-29T08:20:18;3.90;;;0.90;;
32505;SDS011;18955;51.224;8.482;2023-12-29T08:22:46;4.65;;;1.02;;
32505;SDS011;18955;51.224;8.482;2023-12-29T08:25:12;6.05;;;1.10;;
32505;SDS011;18955;51.224;8.482;2023-12-29T08:27:38;6.32;;;1.00;;
32505;SDS011;18955;51.224;8.482;2023-12-29T08:30:06;6.25;;;1.10;;
32505;SDS011;18955;51.224;8.482;2023-12-29T08:32:33;4.88;;;1.23;;
32505;SDS011;18955;51.224;8.482;2023-12-29T08:35:00;6.47;;;1.15;;
32505;SDS011;18955;51.224;8.482;2023-12-29T08:37:26;3.63;;;1.40;;
32505;SDS011;18955;51.224;8.482;2023-12-29T08:39:52;6.22;;;1.38;;
32505;SDS011;18955;51.224;8.482;2023-12-29T08:42:18;2.80;;;0.80;;
32505;SDS011;18955;51.224;8.482;2023-12-29T08:44:45;5.07;;;1.50;;
32505;SDS011;18955;51.224;8.482;2023-12-29T08:47:11;1.73;;;1.00;;
32505;SDS011;18955;51.224;8.482;2023-12-29T08:49:37;6.95;;;1.17;;
32505;SDS011;18955;51.224;8.482;2023-12-29T08:52:04;7.70;;;1.05;;
32505;SDS011;18955;51.224;8.482;2023-12-29T08:54:30;4.00;;;1.10;;
32505;SDS011;18955;51.224;8.482;2023-12-29T08:56:56;2.20;;;0.52;;
32505;SDS011;18955;51.224;8.482;2023-12-29T08:59:23;3.03;;;1.63;;
32505;SDS011;18955;51.224;8.482;2023-12-29T09:01:49;4.43;;;1.00;;
32505;SDS011;18955;51.224;8.482;2023-12-29T09:04:15;2.30;;;0.60;;
32505;SDS011;18955;51.224;8.482;2023-12-29T09:06:41;2.17;;;0.73;;
32505;SDS011;18955;51.224;8.482;2023-12-29T09:09:07;4.63;;;0.80;;
32505;SDS011;18955;51.224;8.482;2023-12-29T09:11:38;2.40;;;0.93;;
32505;SDS011;18955;51.224;8.482;2023-12-29T09:14:05;1.27;;;0.70;;
32505;SDS011;18955;51.224;8.482;2023-12-29T09:16:31;2.20;;;0.85;;
32505;SDS011;18955;51.224;8.482;2023-12-29T09:18:58;2.03;;;0.98;;
32505;SDS011;18955;51.224;8.482;2023-12-29T09:21:24;2.35;;;0.85;;
32505;SDS011;18955;51.224;8.482;2023-12-29T09:23:51;3.65;;;0.77;;
32505;SDS011;18955;51.224;8.482;2023-12-29T09:28:44;2.25;;;0.85;;
32505;SDS011;18955;51.224;8.482;2023-12-29T09:31:10;2.50;;;0.80;;
32505;SDS011;18955;51.224;8.482;2023-12-29T09:33:37;2.00;;;0.77;;
32505;SDS011;18955;51.224;8.482;2023-12-29T09:36:03;0.70;;;0.50;;
32505;SDS011;18955;51.224;8.482;2023-12-29T09:38:30;6.05;;;0.80;;
32505;SDS011;18955;51.224;8.482;2023-12-29T09:40:59;0.57;;;0.57;;
32505;SDS011;18955;51.224;8.482;2023-12-29T09:43:36;1.40;;;0.50;;
32505;SDS011;18955;51.224;8.482;2023-12-29T09:46:04;1.33;;;0.40;;
32505;SDS011;18955;51.224;8.482;2023-12-29T09:48:32;0.68;;;0.63;;
32505;SDS011;18955;51.224;8.482;2023-12-29T09:51:03;1.50;;;0.50;;
32505;SDS011;18955;51.224;8.482;2023-12-29T09:53:30;1.45;;;0.60;;
32505;SDS011;18955;51.224;8.482;2023-12-29T09:55:57;4.70;;;0.70;;
32505;SDS011;18955;51.224;8.482;2023-12-29T09:58:26;0.70;;;0.40;;
32505;SDS011;18955;51.224;8.482;2023-12-29T10:00:53;0.43;;;0.30;;
32505;SDS011;18955;51.224;8.482;2023-12-29T10:03:19;1.40;;;0.50;;
32505;SDS011;18955;51.224;8.482;2023-12-29T10:05:47;0.22;;;0.22;;
32505;SDS011;18955;51.224;8.482;2023-12-29T10:08:17;0.47;;;0.30;;
32505;SDS011;18955;51.224;8.482;2023-12-29T10:10:44;1.13;;;0.50;;
32505;SDS011;18955;51.224;8.482;2023-12-29T10:13:14;1.23;;;0.30;;
32505;SDS011;18955;51.224;8.482;2023-12-29T10:15:47;0.60;;;0.40;;
32505;SDS011;18955;51.224;8.482;2023-12-29T10:18:32;0.73;;;0.40;;
32505;SDS011;18955;51.224;8.482;2023-12-29T10:21:27;0.65;;;0.32;;
32505;SDS011;18955;51.224;8.482;2023-12-29T10:26:47;0.70;;;0.50;;
32505;SDS011;18955;51.224;8.482;2023-12-29T10:29:13;0.98;;;0.40;;
32505;SDS011;18955;51.224;8.482;2023-12-29T10:31:40;2.08;;;0.35;;
32505;SDS011;18955;51.224;8.482;2023-12-29T10:34:22;1.30;;;0.40;;
32505;SDS011;18955;51.224;8.482;2023-12-29T10:36:56;1.55;;;0.30;;
32505;SDS011;18955;51.224;8.482;2023-12-29T10:39:23;1.60;;;0.45;;
32505;SDS011;18955;51.224;8.482;2023-12-29T10:41:50;1.02;;;0.40;;
32505;SDS011;18955;51.224;8.482;2023-12-29T10:44:36;3.03;;;0.38;;
32505;SDS011;18955;51.224;8.482;2023-12-29T10:47:12;0.25;;;0.22;;
32505;SDS011;18955;51.224;8.482;2023-12-29T10:49:39;0.30;;;0.30;;
32505;SDS011;18955;51.224;8.482;2023-12-29T10:52:12;0.57;;;0.30;;
32505;SDS011;18955;51.224;8.482;2023-12-29T10:54:42;0.20;;;0.20;;
32505;SDS011;18955;51.224;8.482;2023-12-29T10:57:10;1.30;;;0.50;;
32505;SDS011;18955;51.224;8.482;2023-12-29T10:59:37;0.40;;;0.30;;
32505;SDS011;18955;51.224;8.482;2023-12-29T11:02:04;0.50;;;0.50;;
32505;SDS011;18955;51.224;8.482;2023-12-29T11:04:31;0.73;;;0.50;;
32505;SDS011;18955;51.224;8.482;2023-12-29T11:06:57;0.28;;;0.28;;
32505;SDS011;18955;51.224;8.482;2023-12-29T11:09:30;2.53;;;0.20;;
32505;SDS011;18955;51.224;8.482;2023-12-29T11:11:59;0.32;;;0.30;;
32505;SDS011;18955;51.224;8.482;2023-12-29T11:14:27;0.43;;;0.28;;
32505;SDS011;18955;51.224;8.482;2023-12-29T11:16:54;0.80;;;0.43;;
32505;SDS011;18955;51.224;8.482;2023-12-29T11:19:21;0.90;;;0.38;;
32505;SDS011;18955;51.224;8.482;2023-12-29T11:21:51;1.15;;;0.40;;
32505;SDS011;18955;51.224;8.482;2023-12-29T11:24:20;0.65;;;0.40;;
32505;SDS011;18955;51.224;8.482;2023-12-29T11:26:47;0.32;;;0.20;;
32505;SDS011;18955;51.224;8.482;2023-12-29T11:29:16;0.28;;;0.28;;
32505;SDS011;18955;51.224;8.482;2023-12-29T11:36:43;0.22;;;0.22;;
32505;SDS011;18955;51.224;8.482;2023-12-29T11:39:20;0.68;;;0.40;;
32505;SDS011;18955;51.224;8.482;2023-12-29T11:44:32;1.88;;;0.30;;
32505;SDS011;18955;51.224;8.482;2023-12-29T11:46:59;1.10;;;0.30;;
32505;SDS011;18955;51.224;8.482;2023-12-29T11:49:25;1.23;;;0.30;;
32505;SDS011;18955;51.224;8.482;2023-12-29T11:51:52;0.20;;;0.20;;
32505;SDS011;18955;51.224;8.482;2023-12-29T11:54:22;0.15;;;0.15;;
32505;SDS011;18955;51.224;8.482;2023-12-29T11:56:49;0.30;;;0.30;;
32505;SDS011;18955;51.224;8.482;2023-12-29T12:01:43;0.22;;;0.22;;
32505;SDS011;18955;51.224;8.482;2023-12-29T12:07:03;0.98;;;0.50;;
32505;SDS011;18955;51.224;8.482;2023-12-29T12:09:30;0.52;;;0.35;;
32505;SDS011;18955;51.224;8.482;2023-12-29T12:11:57;1.58;;;0.77;;
32505;SDS011;18955;51.224;8.482;2023-12-29T12:17:28;0.60;;;0.30;;
32505;SDS011;18955;51.224;8.482;2023-12-29T12:19:56;0.10;;;0.10;;
32505;SDS011;18955;51.224;8.482;2023-12-29T12:22:43;0.40;;;0.20;;
32505;SDS011;18955;51.224;8.482;2023-12-29T12:25:11;0.70;;;0.40;;
32505;SDS011;18955;51.224;8.482;2023-12-29T12:27:38;0.30;;;0.30;;
32505;SDS011;18955;51.224;8.482;2023-12-29T12:32:31;0.75;;;0.68;;
32505;SDS011;18955;51.224;8.482;2023-12-29T12:34:58;0.82;;;0.50;;
32505;SDS011;18955;51.224;8.482;2023-12-29T12:37:28;0.30;;;0.17;;
32505;SDS011;18955;51.224;8.482;2023-12-29T12:39:55;0.40;;;0.20;;
32505;SDS011;18955;51.224;8.482;2023-12-29T12:42:22;0.20;;;0.20;;
32505;SDS011;18955;51.224;8.482;2023-12-29T12:47:34;0.13;;;0.13;;
32505;SDS011;18955;51.224;8.482;2023-12-29T12:50:04;0.40;;;0.20;;
32505;SDS011;18955;51.224;8.482;2023-12-29T12:52:34;0.47;;;0.20;;
32505;SDS011;18955;51.224;8.482;2023-12-29T12:55:02;1.48;;;0.28;;
32505;SDS011;18955;51.224;8.482;2023-12-29T12:57:29;0.30;;;0.30;;
32505;SDS011;18955;51.224;8.482;2023-12-29T12:59:55;0.45;;;0.20;;
32505;SDS011;18955;51.224;8.482;2023-12-29T13:02:22;0.60;;;0.20;;
32505;SDS011;18955;51.224;8.482;2023-12-29T13:04:49;0.57;;;0.40;;
32505;SDS011;18955;51.224;8.482;2023-12-29T13:07:17;0.47;;;0.20;;
32505;SDS011;18955;51.224;8.482;2023-12-29T13:12:16;0.45;;;0.28;;
32505;SDS011;18955;51.224;8.482;2023-12-29T13:14:42;0.43;;;0.30;;
32505;SDS011;18955;51.224;8.482;2023-12-29T13:17:10;0.40;;;0.40;;
32505;SDS011;18955;51.224;8.482;2023-12-29T13:19:38;0.30;;;0.30;;
32505;SDS011;18955;51.224;8.482;2023-12-29T13:22:05;0.20;;;0.20;;
32505;SDS011;18955;51.224;8.482;2023-12-29T13:24:42;0.25;;;0.25;;
32505;SDS011;18955;51.224;8.482;2023-12-29T13:27:12;0.68;;;0.30;;
32505;SDS011;18955;51.224;8.482;2023-12-29T13:29:39;0.22;;;0.20;;
32505;SDS011;18955;51.224;8.482;2023-12-29T13:32:14;0.25;;;0.15;;
32505;SDS011;18955;51.224;8.482;2023-12-29T13:43:13;0.50;;;0.30;;
32505;SDS011;18955;51.224;8.482;2023-12-29T13:45:42;0.38;;;0.20;;
32505;SDS011;18955;51.224;8.482;2023-12-29T13:48:09;0.30;;;0.30;;
32505;SDS011;18955;51.224;8.482;2023-12-29T13:50:37;0.22;;;0.20;;
32505;SDS011;18955;51.224;8.482;2023-12-29T13:53:03;0.28;;;0.28;;
32505;SDS011;18955;51.224;8.482;2023-12-29T13:55:30;0.30;;;0.30;;
32505;SDS011;18955;51.224;8.482;2023-12-29T13:57:57;0.50;;;0.50;;
32505;SDS011;18955;51.224;8.482;2023-12-29T14:00:25;0.30;;;0.30;;
32505;SDS011;18955;51.224;8.482;2023-12-29T14:08:16;0.20;;;0.20;;
32505;SDS011;18955;51.224;8.482;2023-12-29T14:10:45;0.20;;;0.20;;
32505;SDS011;18955;51.224;8.482;2023-12-29T14:13:12;0.98;;;0.22;;
32505;SDS011;18955;51.224;8.482;2023-12-29T14:15:41;0.95;;;0.30;;
32505;SDS011;18955;51.224;8.482;2023-12-29T14:18:55;0.38;;;0.20;;
32505;SDS011;18955;51.224;8.482;2023-12-29T14:21:31;0.20;;;0.20;;
32505;SDS011;18955;51.224;8.482;2023-12-29T14:24:00;0.35;;;0.20;;
32505;SDS011;18955;51.224;8.482;2023-12-29T14:26:32;0.60;;;0.25;;
32505;SDS011;18955;51.224;8.482;2023-12-29T14:29:00;0.13;;;0.13;;
32505;SDS011;18955;51.224;8.482;2023-12-29T14:31:37;0.20;;;0.20;;
32505;SDS011;18955;51.224;8.482;2023-12-29T14:34:06;0.40;;;0.30;;
32505;SDS011;18955;51.224;8.482;2023-12-29T14:36:34;0.30;;;0.20;;
32505;SDS011;18955;51.224;8.482;2023-12-29T14:39:01;2.05;;;0.50;;
32505;SDS011;18955;51.224;8.482;2023-12-29T14:41:29;0.30;;;0.30;;
32505;SDS011;18955;51.224;8.482;2023-12-29T14:46:22;0.35;;;0.35;;
32505;SDS011;18955;51.224;8.482;2023-12-29T14:48:48;0.20;;;0.20;;
32505;SDS011;18955;51.224;8.482;2023-12-29T14:51:15;1.20;;;0.32;;
32505;SDS011;18955;51.224;8.482;2023-12-29T14:53:44;0.77;;;0.30;;
32505;SDS011;18955;51.224;8.482;2023-12-29T14:56:12;1.50;;;0.80;;
32505;SDS011;18955;51.224;8.482;2023-12-29T14:58:39;0.85;;;0.40;;
32505;SDS011;18955;51.224;8.482;2023-12-29T15:01:06;0.30;;;0.30;;
32505;SDS011;18955;51.224;8.482;2023-12-29T15:03:33;0.25;;;0.20;;
32505;SDS011;18955;51.224;8.482;2023-12-29T15:06:00;0.20;;;0.20;;
32505;SDS011;18955;51.224;8.482;2023-12-29T15:08:27;0.47;;;0.20;;
32505;SDS011;18955;51.224;8.482;2023-12-29T15:11:03;0.20;;;0.20;;
32505;SDS011;18955;51.224;8.482;2023-12-29T15:13:30;1.10;;;0.70;;
32505;SDS011;18955;51.224;8.482;2023-12-29T15:15:57;2.17;;;0.30;;
32505;SDS011;18955;51.224;8.482;2023-12-29T15:18:28;0.40;;;0.40;;
32505;SDS011;18955;51.224;8.482;2023-12-29T15:20:56;0.50;;;0.50;;
32505;SDS011;18955;51.224;8.482;2023-12-29T15:23:23;0.80;;;0.75;;
32505;SDS011;18955;51.224;8.482;2023-12-29T15:25:49;0.30;;;0.30;;
32505;SDS011;18955;51.224;8.482;2023-12-29T15:28:16;0.30;;;0.30;;
32505;SDS011;18955;51.224;8.482;2023-12-29T15:30:45;0.20;;;0.20;;
32505;SDS011;18955;51.224;8.482;2023-12-29T15:33:11;0.55;;;0.30;;
32505;SDS011;18955;51.224;8.482;2023-12-29T15:35:39;1.33;;;0.95;;
32505;SDS011;18955;51.224;8.482;2023-12-29T15:38:06;0.43;;;0.20;;
32505;SDS011;18955;51.224;8.482;2023-12-29T15:40:33;0.40;;;0.30;;
32505;SDS011;18955;51.224;8.482;2023-12-29T15:42:59;0.52;;;0.30;;
32505;SDS011;18955;51.224;8.482;2023-12-29T15:45:25;0.30;;;0.30;;
32505;SDS011;18955;51.224;8.482;2023-12-29T15:47:52;0.95;;;0.30;;
32505;SDS011;18955;51.224;8.482;2023-12-29T15:50:18;1.45;;;0.20;;
32505;SDS011;18955;51.224;8.482;2023-12-29T15:52:44;0.52;;;0.17;;